Private Wetterstation Sandau
Wetterdaten: Donnerstag, 27.12.2012
Datum Zeit Temp. A. Feuchte A. Luftdruck Regen Wind Richtung Richtung Taupunkt Windchill
27.12.2012 00:01 3,8 C 87 % 1005,9 hPa 0,0 l/m 6,1 km/h (2 Bft) W-SW 247 1,8 C 2,3 C
27.12.2012 00:06 3,7 C 87 % 1005,7 hPa 0,0 l/m 4,7 km/h (1 Bft) S 180 1,7 C 2,7 C
27.12.2012 00:11 3,6 C 87 % 1005,7 hPa 0,0 l/m 7,9 km/h (2 Bft) SW 225 1,6 C 1,5 C
27.12.2012 00:16 3,6 C 87 % 1005,7 hPa 0,0 l/m 6,5 km/h (2 Bft) S-SW 202 1,6 C 1,9 C
27.12.2012 00:21 3,6 C 87 % 1005,7 hPa 0,0 l/m 4,0 km/h (1 Bft) S 180 1,6 C 3,6 C
27.12.2012 00:26 3,8 C 87 % 1005,6 hPa 0,0 l/m 10,8 km/h (2 Bft) W 270 1,8 C 1,0 C
27.12.2012 00:31 3,8 C 88 % 1005,4 hPa 0,0 l/m 8,3 km/h (2 Bft) W 270 2,0 C 1,6 C
27.12.2012 00:36 4,1 C 88 % 1005,3 hPa 0,0 l/m 17,3 km/h (3 Bft) SW 225 2,3 C 0,3 C
27.12.2012 00:41 4,2 C 89 % 1005,4 hPa 0,0 l/m 18,7 km/h (3 Bft) W-SW 247 2,6 C 0,2 C
27.12.2012 00:46 4,4 C 89 % 1005,2 hPa 0,0 l/m 10,4 km/h (2 Bft) SW 225 2,7 C 1,9 C
27.12.2012 00:51 4,5 C 89 % 1005,0 hPa 0,0 l/m 13,0 km/h (3 Bft) S 180 2,8 C 1,5 C
27.12.2012 00:56 4,7 C 89 % 1004,8 hPa 0,0 l/m 5,4 km/h (1 Bft) SW 225 3,0 C 3,6 C
27.12.2012 01:01 4,8 C 89 % 1004,8 hPa 0,0 l/m 10,4 km/h (2 Bft) S 180 3,1 C 2,3 C
27.12.2012 01:06 4,8 C 89 % 1004,6 hPa 0,0 l/m 7,9 km/h (2 Bft) S-SW 202 3,1 C 2,9 C
27.12.2012 01:11 4,6 C 88 % 1004,5 hPa 0,0 l/m 6,1 km/h (2 Bft) S-SW 202 2,8 C 3,2 C
27.12.2012 01:16 4,5 C 88 % 1004,3 hPa 0,0 l/m 8,3 km/h (2 Bft) SW 225 2,7 C 2,5 C
27.12.2012 01:21 4,5 C 88 % 1004,3 hPa 0,0 l/m 4,3 km/h (1 Bft) S-SW 202 2,7 C 4,5 C
27.12.2012 01:26 4,5 C 89 % 1004,2 hPa 0,0 l/m 11,9 km/h (2 Bft) SW 225 2,8 C 1,7 C
27.12.2012 01:31 4,6 C 89 % 1004,1 hPa 0,0 l/m 9,0 km/h (2 Bft) S-SO 157 2,9 C 2,4 C
27.12.2012 01:36 4,6 C 89 % 1004,0 hPa 0,0 l/m 6,1 km/h (2 Bft) S-SO 157 2,9 C 3,2 C
27.12.2012 01:41 4,7 C 89 % 1003,7 hPa 0,0 l/m 11,2 km/h (2 Bft) S-SO 157 3,0 C 2,0 C
27.12.2012 01:46 4,8 C 89 % 1003,5 hPa 0,0 l/m 14,4 km/h (3 Bft) S-SW 202 3,1 C 1,6 C
27.12.2012 01:51 4,9 C 89 % 1003,4 hPa 0,0 l/m 10,1 km/h (2 Bft) S-SO 157 3,2 C 2,5 C
27.12.2012 01:56 4,9 C 89 % 1003,3 hPa 0,0 l/m 5,8 km/h (2 Bft) S 180 3,2 C 3,7 C
27.12.2012 02:01 4,9 C 89 % 1003,2 hPa 0,0 l/m 2,5 km/h (1 Bft) S-SW 202 3,2 C 4,9 C
27.12.2012 02:06 4,9 C 89 % 1003,1 hPa 0,0 l/m 7,2 km/h (2 Bft) S-SW 202 3,2 C 3,2 C
27.12.2012 02:11 5,0 C 89 % 1002,9 hPa 0,0 l/m 3,2 km/h (1 Bft) W-NW 292 3,3 C 5,0 C
27.12.2012 02:16 5,1 C 89 % 1002,7 hPa 0,0 l/m 6,1 km/h (2 Bft) S-SO 157 3,4 C 3,8 C
27.12.2012 02:21 5,2 C 89 % 1002,7 hPa 0,0 l/m 13,0 km/h (3 Bft) S-SW 202 3,5 C 2,3 C
27.12.2012 02:26 5,3 C 90 % 1002,6 hPa 0,0 l/m 7,9 km/h (2 Bft) S-SW 202 3,8 C 3,5 C
27.12.2012 02:31 5,3 C 90 % 1002,4 hPa 0,0 l/m 19,1 km/h (3 Bft) SW 225 3,8 C 1,6 C
27.12.2012 02:36 5,3 C 90 % 1002,3 hPa 0,0 l/m 6,5 km/h (2 Bft) S 180 3,8 C 3,9 C
27.12.2012 02:41 5,4 C 90 % 1002,1 hPa 0,0 l/m 13,7 km/h (3 Bft) S-SW 202 3,9 C 2,4 C
27.12.2012 02:46 5,4 C 90 % 1001,7 hPa 0,0 l/m 13,0 km/h (3 Bft) SW 225 3,9 C 2,6 C
27.12.2012 02:51 5,6 C 90 % 1001,8 hPa 0,0 l/m 15,5 km/h (3 Bft) S 180 4,1 C 2,4 C
27.12.2012 02:56 5,6 C 90 % 1001,6 hPa 0,5 l/m 15,5 km/h (3 Bft) S 180 4,1 C 2,4 C
27.12.2012 03:01 5,7 C 90 % 1001,5 hPa 0,0 l/m 10,4 km/h (2 Bft) S-SW 202 4,2 C 3,4 C
27.12.2012 03:06 5,8 C 90 % 1001,5 hPa 0,0 l/m 29,2 km/h (5 Bft) S-SW 202 4,3 C 1,2 C
27.12.2012 03:11 5,8 C 90 % 1001,3 hPa 0,0 l/m 18,7 km/h (3 Bft) S-SW 202 4,3 C 2,2 C
27.12.2012 03:16 5,9 C 90 % 1001,2 hPa 0,0 l/m 21,6 km/h (4 Bft) S 180 4,4 C 2,0 C
27.12.2012 03:21 5,9 C 90 % 1001,1 hPa 0,0 l/m 13,0 km/h (3 Bft) SO 135 4,4 C 3,2 C
27.12.2012 03:26 5,9 C 90 % 1000,9 hPa 0,0 l/m 12,6 km/h (3 Bft) S 180 4,4 C 3,2 C
27.12.2012 03:31 6,0 C 90 % 1000,9 hPa 0,0 l/m 24,5 km/h (4 Bft) S-SW 202 4,5 C 1,8 C
27.12.2012 03:36 6,1 C 90 % 1000,9 hPa 0,0 l/m 9,4 km/h (2 Bft) SW 225 4,6 C 4,1 C
27.12.2012 03:41 6,1 C 90 % 1000,8 hPa 0,5 l/m 9,0 km/h (2 Bft) SW 225 4,6 C 4,2 C
27.12.2012 03:46 6,1 C 90 % 1000,7 hPa 0,0 l/m 24,8 km/h (4 Bft) SW 225 4,6 C 1,9 C
27.12.2012 03:51 6,1 C 90 % 1000,4 hPa 0,0 l/m 24,1 km/h (4 Bft) S 180 4,6 C 2,0 C
27.12.2012 03:56 6,2 C 90 % 1000,2 hPa 0,0 l/m 10,8 km/h (2 Bft) S-SW 202 4,7 C 3,9 C
27.12.2012 04:01 6,2 C 90 % 1000,1 hPa 0,0 l/m 8,6 km/h (2 Bft) S-SW 202 4,7 C 4,4 C
27.12.2012 04:06 6,2 C 90 % 1000,1 hPa 0,0 l/m 23,4 km/h (4 Bft) W-SW 247 4,7 C 2,2 C
27.12.2012 04:11 6,3 C 90 % 1000,0 hPa 0,0 l/m 14,4 km/h (3 Bft) S-SO 157 4,8 C 3,4 C
27.12.2012 04:16 6,3 C 90 % 1000,1 hPa 0,5 l/m 11,5 km/h (2 Bft) S-SW 202 4,8 C 3,9 C
27.12.2012 04:21 6,3 C 91 % 1000,1 hPa 0,0 l/m 8,6 km/h (2 Bft) W-SW 247 4,9 C 4,5 C
27.12.2012 04:26 6,3 C 91 % 1000,0 hPa 0,0 l/m 20,9 km/h (4 Bft) W-SW 247 4,9 C 2,6 C
27.12.2012 04:31 6,3 C 91 % 999,9 hPa 0,0 l/m 7,2 km/h (2 Bft) S 180 4,9 C 4,9 C
27.12.2012 04:36 6,3 C 91 % 999,8 hPa 0,5 l/m 20,5 km/h (4 Bft) W-SW 247 4,9 C 2,7 C
27.12.2012 04:41 6,4 C 91 % 999,8 hPa 0,0 l/m 12,6 km/h (3 Bft) W-SW 247 5,0 C 3,8 C
27.12.2012 04:46 6,4 C 91 % 999,8 hPa 0,0 l/m 16,6 km/h (3 Bft) W-SW 247 5,0 C 3,3 C
27.12.2012 04:51 6,4 C 91 % 999,8 hPa 0,5 l/m 6,8 km/h (2 Bft) SW 225 5,0 C 5,1 C
27.12.2012 04:56 6,4 C 91 % 999,7 hPa 0,0 l/m 18,7 km/h (3 Bft) W 270 5,0 C 3,0 C
27.12.2012 05:01 6,4 C 91 % 999,6 hPa 0,0 l/m 9,0 km/h (2 Bft) S-SW 202 5,0 C 4,5 C
27.12.2012 05:06 6,4 C 91 % 999,5 hPa 0,0 l/m 19,1 km/h (3 Bft) W-SW 247 5,0 C 2,9 C
27.12.2012 05:11 6,4 C 91 % 999,3 hPa 0,0 l/m 7,2 km/h (2 Bft) S-SW 202 5,0 C 5,0 C
27.12.2012 05:16 6,4 C 91 % 999,4 hPa 0,0 l/m 18,4 km/h (3 Bft) W-SW 247 5,0 C 3,0 C
27.12.2012 05:21 6,4 C 91 % 999,1 hPa 0,0 l/m 23,0 km/h (4 Bft) W-SW 247 5,0 C 2,5 C
27.12.2012 05:26 6,4 C 91 % 999,3 hPa 0,0 l/m 18,7 km/h (3 Bft) SW 225 5,0 C 3,0 C
27.12.2012 05:31 6,4 C 91 % 999,2 hPa 0,0 l/m 28,1 km/h (4 Bft) W-SW 247 5,0 C 2,0 C
27.12.2012 05:36 6,4 C 91 % 999,1 hPa 0,0 l/m 15,8 km/h (3 Bft) S-SW 202 5,0 C 3,4 C
27.12.2012 05:41 6,4 C 91 % 999,0 hPa 0,0 l/m 8,3 km/h (2 Bft) S-SW 202 5,0 C 4,7 C
27.12.2012 05:46 6,4 C 91 % 999,1 hPa 0,0 l/m 15,5 km/h (3 Bft) SW 225 5,0 C 3,4 C
27.12.2012 05:51 6,4 C 91 % 999,1 hPa 0,0 l/m 13,7 km/h (3 Bft) S-SW 202 5,0 C 3,7 C
27.12.2012 05:56 6,5 C 91 % 998,9 hPa 0,0 l/m 12,2 km/h (2 Bft) S 180 5,1 C 4,0 C
27.12.2012 06:01 6,5 C 91 % 999,0 hPa 0,0 l/m 17,3 km/h (3 Bft) W-SW 247 5,1 C 3,3 C
27.12.2012 06:06 6,6 C 91 % 998,9 hPa 0,0 l/m 12,2 km/h (2 Bft) S-SW 202 5,2 C 4,2 C
27.12.2012 06:11 6,6 C 91 % 999,0 hPa 0,0 l/m 9,4 km/h (2 Bft) SW 225 5,2 C 4,7 C
27.12.2012 06:16 6,7 C 91 % 999,0 hPa 0,0 l/m 7,6 km/h (2 Bft) S-SO 157 5,3 C 5,2 C
27.12.2012 06:21 6,8 C 91 % 999,3 hPa 0,0 l/m 9,7 km/h (2 Bft) W-SW 247 5,4 C 4,9 C
27.12.2012 06:26 6,9 C 90 % 999,3 hPa 0,0 l/m 19,1 km/h (3 Bft) S 180 5,4 C 3,6 C
27.12.2012 06:31 6,9 C 90 % 999,2 hPa 0,0 l/m 10,1 km/h (2 Bft) W-SW 247 5,4 C 4,9 C
27.12.2012 06:36 7,0 C 90 % 999,3 hPa 0,0 l/m 12,2 km/h (2 Bft) W-NW 292 5,5 C 4,6 C
27.12.2012 06:41 7,1 C 90 % 999,2 hPa 0,0 l/m 20,9 km/h (4 Bft) NW 315 5,6 C 3,6 C
27.12.2012 06:46 7,2 C 90 % 999,3 hPa 0,0 l/m 17,3 km/h (3 Bft) W-SW 247 5,7 C 4,2 C
27.12.2012 06:51 7,2 C 90 % 999,3 hPa 0,0 l/m 20,2 km/h (4 Bft) W-SW 247 5,7 C 3,8 C
27.12.2012 06:56 7,2 C 90 % 999,4 hPa 0,0 l/m 9,7 km/h (2 Bft) NW 315 5,7 C 5,3 C
27.12.2012 07:01 7,2 C 90 % 999,4 hPa 0,0 l/m 14,0 km/h (3 Bft) W 270 5,7 C 4,6 C
27.12.2012 07:06 7,3 C 89 % 999,3 hPa 0,0 l/m 19,1 km/h (3 Bft) W-SW 247 5,6 C 4,1 C
27.12.2012 07:11 7,3 C 89 % 999,3 hPa 0,0 l/m 18,0 km/h (3 Bft) W 270 5,6 C 4,2 C
27.12.2012 07:16 7,2 C 89 % 999,4 hPa 0,0 l/m 19,1 km/h (3 Bft) SW 225 5,5 C 3,9 C
27.12.2012 07:21 7,2 C 89 % 999,4 hPa 0,0 l/m 15,8 km/h (3 Bft) SW 225 5,5 C 4,4 C
27.12.2012 07:26 7,2 C 89 % 999,5 hPa 0,0 l/m 21,6 km/h (4 Bft) SW 225 5,5 C 3,7 C
27.12.2012 07:31 7,1 C 89 % 999,3 hPa 0,0 l/m 14,4 km/h (3 Bft) W 270 5,4 C 4,4 C
27.12.2012 07:36 7,1 C 89 % 999,4 hPa 0,0 l/m 24,5 km/h (4 Bft) SW 225 5,4 C 3,3 C
27.12.2012 07:41 7,0 C 89 % 999,6 hPa 0,0 l/m 16,9 km/h (3 Bft) W-SW 247 5,3 C 4,0 C
27.12.2012 07:46 6,9 C 89 % 999,7 hPa 0,0 l/m 19,1 km/h (3 Bft) W-SW 247 5,2 C 3,6 C
27.12.2012 07:51 6,9 C 89 % 999,7 hPa 0,0 l/m 13,3 km/h (3 Bft) W-SW 247 5,2 C 4,3 C
27.12.2012 07:56 6,8 C 89 % 999,7 hPa 0,0 l/m 12,2 km/h (2 Bft) W 270 5,1 C 4,4 C
27.12.2012 08:01 6,8 C 89 % 999,6 hPa 0,0 l/m 14,0 km/h (3 Bft) W-SW 247 5,1 C 4,1 C
27.12.2012 08:06 6,8 C 89 % 999,7 hPa 0,0 l/m 12,2 km/h (2 Bft) S-SW 202 5,1 C 4,4 C
27.12.2012 08:11 6,8 C 89 % 999,7 hPa 0,0 l/m 21,6 km/h (4 Bft) W 270 5,1 C 3,2 C
27.12.2012 08:16 6,9 C 89 % 999,9 hPa 0,0 l/m 14,4 km/h (3 Bft) W-SW 247 5,2 C 4,2 C
27.12.2012 08:21 7,0 C 89 % 1000,2 hPa 1,0 l/m 12,6 km/h (3 Bft) W-SW 247 5,3 C 4,6 C
27.12.2012 08:26 7,0 C 90 % 999,9 hPa 0,0 l/m 10,1 km/h (2 Bft) W-SW 247 5,5 C 5,0 C
27.12.2012 08:31 6,9 C 90 % 1000,0 hPa 0,0 l/m 27,4 km/h (4 Bft) W 270 5,4 C 2,7 C
27.12.2012 08:36 6,9 C 89 % 1000,2 hPa 0,0 l/m 18,4 km/h (3 Bft) W-NW 292 5,2 C 3,6 C
27.12.2012 08:41 6,9 C 88 % 1000,1 hPa 0,0 l/m 7,6 km/h (2 Bft) W-NW 292 5,1 C 5,5 C
27.12.2012 08:46 6,9 C 88 % 1000,1 hPa 0,0 l/m 14,8 km/h (3 Bft) W-NW 292 5,1 C 4,1 C
27.12.2012 08:51 6,9 C 88 % 1000,1 hPa 0,5 l/m 14,4 km/h (3 Bft) W-NW 292 5,1 C 4,2 C
27.12.2012 08:56 6,8 C 89 % 1000,3 hPa 0,0 l/m 13,0 km/h (3 Bft) W-NW 292 5,1 C 4,3 C
27.12.2012 09:01 6,7 C 89 % 1000,4 hPa 1,0 l/m 6,8 km/h (2 Bft) W-SW 247 5,0 C 5,4 C
27.12.2012 09:06 6,6 C 89 % 1000,4 hPa 0,0 l/m 14,4 km/h (3 Bft) W-SW 247 4,9 C 3,8 C
27.12.2012 09:11 6,5 C 89 % 1000,4 hPa 0,0 l/m 11,2 km/h (2 Bft) W-SW 247 4,8 C 4,2 C
27.12.2012 09:16 6,5 C 90 % 1000,4 hPa 0,0 l/m 6,5 km/h (2 Bft) W-SW 247 5,0 C 5,3 C
27.12.2012 09:21 6,6 C 89 % 1000,4 hPa 0,0 l/m 14,8 km/h (3 Bft) W 270 4,9 C 3,8 C
27.12.2012 09:26 6,6 C 89 % 1000,5 hPa 0,0 l/m 23,4 km/h (4 Bft) W 270 4,9 C 2,7 C
27.12.2012 09:31 6,7 C 88 % 1000,4 hPa 0,0 l/m 16,9 km/h (3 Bft) W-SW 247 4,9 C 3,6 C
27.12.2012 09:36 6,8 C 88 % 1000,5 hPa 0,0 l/m 25,6 km/h (4 Bft) W-SW 247 5,0 C 2,8 C
27.12.2012 09:41 6,8 C 87 % 1000,6 hPa 0,0 l/m 22,3 km/h (4 Bft) W-SW 247 4,8 C 3,1 C
27.12.2012 09:46 6,8 C 87 % 1000,5 hPa 0,0 l/m 10,8 km/h (2 Bft) W-SW 247 4,8 C 4,7 C
27.12.2012 09:51 6,9 C 87 % 1000,5 hPa 0,0 l/m 7,6 km/h (2 Bft) S-SW 202 4,9 C 5,5 C
27.12.2012 09:56 6,9 C 87 % 1000,6 hPa 0,0 l/m 18,0 km/h (3 Bft) S-SW 202 4,9 C 3,7 C
27.12.2012 10:01 6,9 C 87 % 1000,8 hPa 0,0 l/m 15,1 km/h (3 Bft) W-SW 247 4,9 C 4,1 C
27.12.2012 10:06 6,9 C 87 % 1000,8 hPa 0,0 l/m 12,6 km/h (3 Bft) W-SW 247 4,9 C 4,5 C
27.12.2012 10:11 7,0 C 85 % 1000,9 hPa 0,0 l/m 23,4 km/h (4 Bft) W-SW 247 4,7 C 3,2 C
27.12.2012 10:16 7,2 C 85 % 1001,1 hPa 0,0 l/m 19,4 km/h (3 Bft) W-NW 292 4,9 C 3,9 C
27.12.2012 10:21 7,2 C 84 % 1001,1 hPa 0,0 l/m 15,1 km/h (3 Bft) W 270 4,7 C 4,4 C
27.12.2012 10:26 7,2 C 84 % 1001,1 hPa 0,0 l/m 31,0 km/h (5 Bft) W 270 4,7 C 2,8 C
27.12.2012 10:31 7,2 C 84 % 1001,3 hPa 0,0 l/m 18,0 km/h (3 Bft) W-SW 247 4,7 C 4,1 C
27.12.2012 10:36 7,2 C 84 % 1001,4 hPa 0,0 l/m 8,3 km/h (2 Bft) S-SW 202 4,7 C 5,6 C
27.12.2012 10:41 7,2 C 84 % 1001,2 hPa 0,0 l/m 24,8 km/h (4 Bft) W-SW 247 4,7 C 3,4 C
27.12.2012 10:46 7,3 C 84 % 1001,3 hPa 0,0 l/m 17,6 km/h (3 Bft) W-SW 247 4,8 C 4,2 C
27.12.2012 10:51 7,3 C 83 % 1001,2 hPa 0,0 l/m 18,4 km/h (3 Bft) W 270 4,6 C 4,2 C
27.12.2012 10:56 7,3 C 82 % 1001,4 hPa 0,0 l/m 14,4 km/h (3 Bft) W 270 4,4 C 4,7 C
27.12.2012 11:01 7,4 C 82 % 1001,1 hPa 0,0 l/m 34,9 km/h (5 Bft) W 270 4,5 C 2,8 C
27.12.2012 11:06 7,6 C 82 % 1001,2 hPa 0,0 l/m 31,0 km/h (5 Bft) W-SW 247 4,7 C 3,4 C
27.12.2012 11:11 7,6 C 82 % 1001,1 hPa 0,0 l/m 18,7 km/h (3 Bft) W 270 4,7 C 4,5 C
27.12.2012 11:16 7,6 C 81 % 1001,1 hPa 0,0 l/m 16,9 km/h (3 Bft) W-SW 247 4,6 C 4,7 C
27.12.2012 11:21 7,6 C 81 % 1001,0 hPa 0,0 l/m 11,9 km/h (2 Bft) SW 225 4,6 C 5,4 C
27.12.2012 11:26 7,6 C 81 % 1001,1 hPa 0,0 l/m 16,9 km/h (3 Bft) W 270 4,6 C 4,7 C
27.12.2012 11:31 7,6 C 81 % 1000,9 hPa 0,0 l/m 13,3 km/h (3 Bft) W-SW 247 4,6 C 5,2 C
27.12.2012 11:36 7,8 C 82 % 1000,9 hPa 0,0 l/m 23,4 km/h (4 Bft) W 270 4,9 C 4,3 C
27.12.2012 11:41 7,8 C 81 % 1000,9 hPa 0,0 l/m 22,0 km/h (4 Bft) W-SW 247 4,7 C 4,4 C
27.12.2012 11:46 7,8 C 81 % 1000,9 hPa 0,0 l/m 18,4 km/h (3 Bft) W-SW 247 4,7 C 4,8 C
27.12.2012 11:51 7,8 C 81 % 1000,7 hPa 0,0 l/m 12,2 km/h (2 Bft) W-SW 247 4,7 C 5,6 C
27.12.2012 11:56 7,8 C 81 % 1000,8 hPa 0,0 l/m 14,4 km/h (3 Bft) W-SW 247 4,7 C 5,3 C
27.12.2012 12:01 7,8 C 81 % 1000,7 hPa 0,0 l/m 31,0 km/h (5 Bft) W 270 4,7 C 3,6 C
27.12.2012 12:06 7,9 C 81 % 1000,7 hPa 0,0 l/m 20,5 km/h (4 Bft) W-SW 247 4,8 C 4,7 C
27.12.2012 12:11 8,1 C 79 % 1000,9 hPa 0,0 l/m 14,4 km/h (3 Bft) W 270 4,7 C 5,7 C
27.12.2012 12:16 8,1 C 78 % 1001,0 hPa 0,0 l/m 13,3 km/h (3 Bft) W 270 4,5 C 5,8 C
27.12.2012 12:21 8,1 C 77 % 1000,9 hPa 0,0 l/m 25,6 km/h (4 Bft) W 270 4,3 C 4,4 C
27.12.2012 12:26 8,1 C 77 % 1000,8 hPa 0,0 l/m 18,7 km/h (3 Bft) SW 225 4,3 C 5,1 C
27.12.2012 12:31 8,2 C 76 % 1000,8 hPa 0,0 l/m 19,8 km/h (3 Bft) W-SW 247 4,2 C 5,1 C
27.12.2012 12:36 8,2 C 76 % 1000,7 hPa 0,0 l/m 27,7 km/h (4 Bft) W 270 4,2 C 4,4 C
27.12.2012 12:41 8,2 C 76 % 1001,0 hPa 0,0 l/m 24,8 km/h (4 Bft) W 270 4,2 C 4,6 C
27.12.2012 12:46 8,2 C 76 % 1000,9 hPa 0,0 l/m 23,4 km/h (4 Bft) W-SW 247 4,2 C 4,8 C
27.12.2012 12:51 8,3 C 76 % 1001,0 hPa 0,0 l/m 28,1 km/h (4 Bft) W 270 4,3 C 4,5 C
27.12.2012 12:56 8,2 C 76 % 1000,8 hPa 0,0 l/m 23,0 km/h (4 Bft) W-SW 247 4,2 C 4,8 C
27.12.2012 13:01 8,2 C 75 % 1000,8 hPa 0,0 l/m 40,0 km/h (6 Bft) W 270 4,0 C 3,6 C
27.12.2012 13:06 8,1 C 75 % 1000,7 hPa 0,0 l/m 18,4 km/h (3 Bft) W 270 3,9 C 5,2 C
27.12.2012 13:11 8,1 C 75 % 1000,7 hPa 0,0 l/m 29,5 km/h (5 Bft) W-SW 247 3,9 C 4,1 C
27.12.2012 13:16 8,1 C 75 % 1000,8 hPa 0,0 l/m 25,6 km/h (4 Bft) W-SW 247 3,9 C 4,4 C
27.12.2012 13:21 8,1 C 75 % 1000,6 hPa 0,0 l/m 19,4 km/h (3 Bft) W 270 3,9 C 5,0 C
27.12.2012 13:26 8,1 C 75 % 1000,6 hPa 0,0 l/m 20,9 km/h (4 Bft) W-NW 292 3,9 C 4,9 C
27.12.2012 13:31 8,1 C 74 % 1000,6 hPa 0,0 l/m 19,1 km/h (3 Bft) W-SW 247 3,8 C 5,1 C
27.12.2012 13:36 8,1 C 74 % 1000,7 hPa 0,0 l/m 33,8 km/h (5 Bft) W 270 3,8 C 3,8 C
27.12.2012 13:41 8,2 C 74 % 1000,7 hPa 0,0 l/m 17,3 km/h (3 Bft) W-SW 247 3,8 C 5,4 C
27.12.2012 13:46 8,2 C 74 % 1000,7 hPa 0,0 l/m 31,3 km/h (5 Bft) W 270 3,8 C 4,1 C
27.12.2012 13:51 8,1 C 75 % 1000,6 hPa 0,0 l/m 19,4 km/h (3 Bft) W-SW 247 3,9 C 5,0 C
27.12.2012 13:56 8,1 C 74 % 1000,6 hPa 0,0 l/m 16,9 km/h (3 Bft) W-SW 247 3,8 C 5,3 C
27.12.2012 14:01 8,2 C 74 % 1000,5 hPa 0,0 l/m 23,4 km/h (4 Bft) W 270 3,8 C 4,8 C
27.12.2012 14:06 8,2 C 74 % 1000,5 hPa 0,0 l/m 38,2 km/h (5 Bft) W 270 3,8 C 3,7 C
27.12.2012 14:11 8,1 C 74 % 1000,6 hPa 0,0 l/m 28,8 km/h (4 Bft) W-SW 247 3,8 C 4,2 C
27.12.2012 14:16 8,1 C 74 % 1000,6 hPa 0,0 l/m 27,0 km/h (4 Bft) SW 225 3,8 C 4,3 C
27.12.2012 14:21 8,1 C 74 % 1000,7 hPa 0,0 l/m 27,0 km/h (4 Bft) W-NW 292 3,8 C 4,3 C
27.12.2012 14:26 8,1 C 73 % 1000,7 hPa 0,0 l/m 16,9 km/h (3 Bft) W-SW 247 3,6 C 5,3 C
27.12.2012 14:31 7,9 C 74 % 1000,8 hPa 0,0 l/m 14,4 km/h (3 Bft) W-SW 247 3,6 C 5,4 C
27.12.2012 14:36 7,8 C 74 % 1000,9 hPa 0,0 l/m 25,6 km/h (4 Bft) W-SW 247 3,5 C 4,1 C
27.12.2012 14:41 7,8 C 74 % 1000,9 hPa 0,0 l/m 10,8 km/h (2 Bft) S-SW 202 3,5 C 5,9 C
27.12.2012 14:46 7,8 C 74 % 1000,8 hPa 0,0 l/m 10,8 km/h (2 Bft) SW 225 3,5 C 5,9 C
27.12.2012 14:51 7,8 C 73 % 1001,0 hPa 0,0 l/m 16,2 km/h (3 Bft) W 270 3,3 C 5,0 C
27.12.2012 14:56 7,8 C 73 % 1001,1 hPa 0,0 l/m 10,4 km/h (2 Bft) W 270 3,3 C 5,9 C
27.12.2012 15:01 7,8 C 73 % 1001,2 hPa 0,0 l/m 9,7 km/h (2 Bft) W-SW 247 3,3 C 6,1 C
27.12.2012 15:06 7,9 C 73 % 1001,1 hPa 0,0 l/m 11,9 km/h (2 Bft) W 270 3,4 C 5,8 C
27.12.2012 15:11 7,8 C 73 % 1001,2 hPa 0,0 l/m 21,6 km/h (4 Bft) W-SW 247 3,3 C 4,4 C
27.12.2012 15:16 7,8 C 74 % 1001,3 hPa 0,0 l/m 14,8 km/h (3 Bft) W-SW 247 3,5 C 5,2 C
27.12.2012 15:21 7,8 C 74 % 1001,2 hPa 0,0 l/m 16,9 km/h (3 Bft) W 270 3,5 C 5,0 C
27.12.2012 15:26 7,7 C 75 % 1001,4 hPa 0,0 l/m 9,4 km/h (2 Bft) SW 225 3,6 C 6,0 C
27.12.2012 15:31 7,6 C 76 % 1001,3 hPa 0,0 l/m 14,4 km/h (3 Bft) W 270 3,6 C 5,0 C
27.12.2012 15:36 7,5 C 76 % 1001,4 hPa 0,0 l/m 16,9 km/h (3 Bft) W 270 3,5 C 4,6 C
27.12.2012 15:41 7,4 C 76 % 1001,6 hPa 0,0 l/m 18,0 km/h (3 Bft) W 270 3,5 C 4,3 C
27.12.2012 15:46 7,3 C 76 % 1001,4 hPa 0,0 l/m 22,0 km/h (4 Bft) W-SW 247 3,4 C 3,8 C
27.12.2012 15:51 7,2 C 77 % 1001,5 hPa 0,0 l/m 10,8 km/h (2 Bft) SW 225 3,4 C 5,1 C
27.12.2012 15:56 7,1 C 77 % 1001,5 hPa 0,0 l/m 11,5 km/h (2 Bft) W 270 3,3 C 4,9 C
27.12.2012 16:01 6,9 C 78 % 1001,6 hPa 0,0 l/m 14,4 km/h (3 Bft) W-SW 247 3,3 C 4,2 C
27.12.2012 16:06 6,8 C 79 % 1001,7 hPa 0,0 l/m 10,8 km/h (2 Bft) W 270 3,4 C 4,7 C
27.12.2012 16:11 6,6 C 79 % 1001,6 hPa 0,0 l/m 11,2 km/h (2 Bft) W-SW 247 3,2 C 4,3 C
27.12.2012 16:16 6,5 C 79 % 1001,7 hPa 0,0 l/m 15,5 km/h (3 Bft) W-SW 247 3,1 C 3,5 C
27.12.2012 16:21 6,4 C 80 % 1001,8 hPa 0,0 l/m 5,0 km/h (1 Bft) W 270 3,2 C 5,7 C
27.12.2012 16:26 6,3 C 80 % 1001,8 hPa 0,0 l/m 9,7 km/h (2 Bft) W-SW 247 3,1 C 4,3 C
27.12.2012 16:31 6,3 C 80 % 1001,9 hPa 0,0 l/m 10,4 km/h (2 Bft) W 270 3,1 C 4,1 C
27.12.2012 16:36 6,2 C 81 % 1001,9 hPa 0,0 l/m 10,4 km/h (2 Bft) SW 225 3,2 C 4,0 C
27.12.2012 16:41 6,2 C 81 % 1001,9 hPa 0,0 l/m 16,2 km/h (3 Bft) W 270 3,2 C 3,1 C
27.12.2012 16:46 6,1 C 81 % 1001,9 hPa 0,0 l/m 8,6 km/h (2 Bft) W-SW 247 3,1 C 4,3 C
27.12.2012 16:51 6,1 C 81 % 1002,1 hPa 0,0 l/m 11,9 km/h (2 Bft) W-SW 247 3,1 C 3,6 C
27.12.2012 16:56 5,9 C 81 % 1002,1 hPa 0,0 l/m 14,8 km/h (3 Bft) W 270 2,9 C 2,9 C
27.12.2012 17:01 5,9 C 81 % 1002,0 hPa 0,0 l/m 14,8 km/h (3 Bft) W-SW 247 2,9 C 2,9 C
27.12.2012 17:06 5,9 C 82 % 1002,1 hPa 0,0 l/m 8,3 km/h (2 Bft) W-SW 247 3,1 C 4,1 C
27.12.2012 17:11 5,8 C 82 % 1002,2 hPa 0,0 l/m 11,9 km/h (2 Bft) W-SW 247 3,0 C 3,2 C
27.12.2012 17:16 5,6 C 82 % 1002,3 hPa 0,0 l/m 12,2 km/h (2 Bft) W-SW 247 2,8 C 2,9 C
27.12.2012 17:21 5,6 C 83 % 1002,3 hPa 0,0 l/m 12,2 km/h (2 Bft) W-SW 247 2,9 C 2,9 C
27.12.2012 17:26 5,5 C 83 % 1002,4 hPa 0,0 l/m 11,2 km/h (2 Bft) W-SW 247 2,8 C 3,0 C
27.12.2012 17:31 5,4 C 84 % 1002,4 hPa 0,0 l/m 6,8 km/h (2 Bft) W-SW 247 2,9 C 3,9 C
27.12.2012 17:36 5,4 C 84 % 1002,4 hPa 0,0 l/m 11,5 km/h (2 Bft) W-SW 247 2,9 C 2,8 C
27.12.2012 17:41 5,3 C 84 % 1002,6 hPa 0,0 l/m 7,6 km/h (2 Bft) W 270 2,8 C 3,6 C
27.12.2012 17:46 5,2 C 84 % 1002,7 hPa 0,0 l/m 7,6 km/h (2 Bft) W-SW 247 2,7 C 3,5 C
27.12.2012 17:51 5,2 C 85 % 1002,7 hPa 0,0 l/m 10,1 km/h (2 Bft) W-SW 247 2,9 C 2,9 C
27.12.2012 17:56 5,1 C 85 % 1002,9 hPa 0,0 l/m 7,6 km/h (2 Bft) W-SW 247 2,8 C 3,4 C
27.12.2012 18:01 5,1 C 85 % 1002,7 hPa 0,0 l/m 11,9 km/h (2 Bft) W-SW 247 2,8 C 2,4 C
27.12.2012 18:06 5,0 C 85 % 1003,0 hPa 0,0 l/m 11,9 km/h (2 Bft) SW 225 2,7 C 2,3 C
27.12.2012 18:11 4,9 C 86 % 1003,1 hPa 0,0 l/m 6,5 km/h (2 Bft) W-SW 247 2,8 C 3,4 C
27.12.2012 18:16 4,9 C 86 % 1003,1 hPa 0,0 l/m 8,6 km/h (2 Bft) W-SW 247 2,8 C 2,9 C
27.12.2012 18:21 4,9 C 86 % 1003,1 hPa 0,0 l/m 17,6 km/h (3 Bft) W-SW 247 2,8 C 1,2 C
27.12.2012 18:26 4,9 C 86 % 1003,2 hPa 0,0 l/m 17,3 km/h (3 Bft) W 270 2,8 C 1,3 C
27.12.2012 18:31 4,8 C 86 % 1003,1 hPa 0,0 l/m 11,2 km/h (2 Bft) W-SW 247 2,7 C 2,2 C
27.12.2012 18:36 4,8 C 87 % 1003,2 hPa 0,0 l/m 7,9 km/h (2 Bft) W-SW 247 2,8 C 2,9 C
27.12.2012 18:41 4,8 C 87 % 1003,4 hPa 0,0 l/m 5,4 km/h (1 Bft) S-SW 202 2,8 C 3,7 C
27.12.2012 18:46 4,8 C 87 % 1003,4 hPa 0,0 l/m 8,6 km/h (2 Bft) W-SW 247 2,8 C 2,7 C
27.12.2012 18:51 4,7 C 87 % 1003,6 hPa 0,0 l/m 8,3 km/h (2 Bft) W-SW 247 2,7 C 2,7 C
27.12.2012 18:56 4,7 C 87 % 1003,5 hPa 0,0 l/m 6,1 km/h (2 Bft) W-SW 247 2,7 C 3,3 C
27.12.2012 19:01 4,8 C 88 % 1003,5 hPa 0,0 l/m 7,9 km/h (2 Bft) W-SW 247 3,0 C 2,9 C
27.12.2012 19:06 4,9 C 88 % 1003,7 hPa 0,0 l/m 7,6 km/h (2 Bft) S-SW 202 3,1 C 3,1 C
27.12.2012 19:11 4,9 C 88 % 1004,0 hPa 0,0 l/m 8,6 km/h (2 Bft) W-SW 247 3,1 C 2,9 C
27.12.2012 19:16 5,0 C 88 % 1003,8 hPa 0,0 l/m 8,6 km/h (2 Bft) W-SW 247 3,2 C 3,0 C
27.12.2012 19:21 5,0 C 88 % 1004,0 hPa 0,0 l/m 8,3 km/h (2 Bft) W 270 3,2 C 3,1 C
27.12.2012 19:26 5,0 C 88 % 1004,1 hPa 0,0 l/m 8,3 km/h (2 Bft) W-SW 247 3,2 C 3,1 C
27.12.2012 19:31 5,0 C 88 % 1004,1 hPa 0,0 l/m 11,2 km/h (2 Bft) W-SW 247 3,2 C 2,4 C
27.12.2012 19:36 5,0 C 88 % 1004,5 hPa 0,0 l/m 8,6 km/h (2 Bft) W 270 3,2 C 3,0 C
27.12.2012 19:41 5,0 C 88 % 1004,6 hPa 0,0 l/m 10,1 km/h (2 Bft) W-SW 247 3,2 C 2,6 C
27.12.2012 19:46 5,0 C 88 % 1004,7 hPa 0,0 l/m 9,4 km/h (2 Bft) SW 225 3,2 C 2,8 C
27.12.2012 19:51 5,0 C 88 % 1004,6 hPa 0,0 l/m 8,3 km/h (2 Bft) W 270 3,2 C 3,1 C
27.12.2012 19:56 5,1 C 88 % 1004,6 hPa 0,0 l/m 3,6 km/h (1 Bft) W 270 3,3 C 5,1 C
27.12.2012 20:01 5,1 C 88 % 1004,8 hPa 0,0 l/m 2,2 km/h (1 Bft) W-SW 247 3,3 C 5,1 C
27.12.2012 20:06 5,1 C 88 % 1005,0 hPa 0,0 l/m 9,4 km/h (2 Bft) W-NW 292 3,3 C 2,9 C
27.12.2012 20:11 5,1 C 88 % 1005,3 hPa 0,0 l/m 3,6 km/h (1 Bft) W-SW 247 3,3 C 5,1 C
27.12.2012 20:16 5,1 C 88 % 1005,4 hPa 0,0 l/m 11,5 km/h (2 Bft) W 270 3,3 C 2,5 C
27.12.2012 20:21 5,0 C 88 % 1005,6 hPa 0,0 l/m 10,8 km/h (2 Bft) W-SW 247 3,2 C 2,5 C
27.12.2012 20:26 4,9 C 88 % 1005,5 hPa 0,0 l/m 1,4 km/h (1 Bft) W-SW 247 3,1 C 4,9 C
27.12.2012 20:31 4,9 C 88 % 1005,5 hPa 0,0 l/m 2,5 km/h (1 Bft) W-NW 292 3,1 C 4,9 C
27.12.2012 20:36 4,9 C 88 % 1005,9 hPa 0,0 l/m 7,2 km/h (2 Bft) W-NW 292 3,1 C 3,2 C
27.12.2012 20:41 4,9 C 88 % 1005,9 hPa 0,0 l/m 2,2 km/h (1 Bft) W-NW 292 3,1 C 4,9 C
27.12.2012 20:46 4,9 C 88 % 1005,9 hPa 0,0 l/m 6,8 km/h (2 Bft) W-NW 292 3,1 C 3,4 C
27.12.2012 20:51 4,9 C 88 % 1006,0 hPa 0,0 l/m 5,4 km/h (1 Bft) W 270 3,1 C 3,8 C
27.12.2012 20:56 4,9 C 89 % 1006,3 hPa 0,0 l/m 5,4 km/h (1 Bft) W-NW 292 3,2 C 3,8 C
27.12.2012 21:01 4,9 C 89 % 1006,4 hPa 0,0 l/m 6,8 km/h (2 Bft) N 360 3,2 C 3,4 C
27.12.2012 21:06 4,9 C 90 % 1006,7 hPa 0,0 l/m 13,0 km/h (3 Bft) N-NW 337 3,4 C 2,0 C
27.12.2012 21:11 4,9 C 89 % 1006,9 hPa 0,0 l/m 13,7 km/h (3 Bft) N 360 3,2 C 1,8 C
27.12.2012 21:16 4,9 C 89 % 1007,0 hPa 0,0 l/m 7,2 km/h (2 Bft) N-NO 22 3,2 C 3,2 C
27.12.2012 21:21 4,8 C 88 % 1007,3 hPa 0,0 l/m 4,3 km/h (1 Bft) N-NO 22 3,0 C 4,8 C
27.12.2012 21:26 4,6 C 88 % 1007,1 hPa 0,0 l/m 9,7 km/h (2 Bft) N 360 2,8 C 2,2 C
27.12.2012 21:31 4,6 C 87 % 1007,3 hPa 0,0 l/m 5,0 km/h (1 Bft) N 360 2,6 C 3,6 C
27.12.2012 21:36 4,5 C 87 % 1007,5 hPa 0,0 l/m 9,7 km/h (2 Bft) N-NW 337 2,5 C 2,1 C
27.12.2012 21:41 4,4 C 86 % 1007,7 hPa 0,0 l/m 8,3 km/h (2 Bft) N 360 2,3 C 2,4 C
27.12.2012 21:46 4,3 C 86 % 1007,9 hPa 0,0 l/m 9,4 km/h (2 Bft) N-NO 22 2,2 C 2,0 C
27.12.2012 21:51 4,2 C 86 % 1008,0 hPa 0,0 l/m 7,9 km/h (2 Bft) N-NO 22 2,1 C 2,2 C
27.12.2012 21:56 4,2 C 86 % 1008,2 hPa 0,0 l/m 9,0 km/h (2 Bft) N 360 2,1 C 1,9 C
27.12.2012 22:01 4,1 C 86 % 1008,3 hPa 0,0 l/m 7,9 km/h (2 Bft) N-NO 22 2,0 C 2,1 C
27.12.2012 22:06 4,1 C 86 % 1008,5 hPa 0,0 l/m 12,2 km/h (2 Bft) N-NO 22 2,0 C 1,1 C
27.12.2012 22:11 4,0 C 85 % 1008,7 hPa 0,0 l/m 8,6 km/h (2 Bft) O-NO 67 1,7 C 1,8 C
27.12.2012 22:16 3,9 C 83 % 1008,8 hPa 0,0 l/m 12,6 km/h (3 Bft) N 360 1,3 C 0,8 C
27.12.2012 22:21 3,8 C 80 % 1009,1 hPa 0,0 l/m 9,4 km/h (2 Bft) NO 45 0,7 C 1,4 C
27.12.2012 22:26 3,8 C 81 % 1009,2 hPa 0,0 l/m 20,9 km/h (4 Bft) N 360 0,8 C -0,6 C
27.12.2012 22:31 3,6 C 79 % 1009,3 hPa 0,0 l/m 16,6 km/h (3 Bft) NO 45 0,3 C -0,2 C
27.12.2012 22:36 3,5 C 79 % 1009,3 hPa 0,0 l/m 10,8 km/h (2 Bft) N-NO 22 0,2 C 0,7 C
27.12.2012 22:41 3,4 C 80 % 1009,6 hPa 0,0 l/m 19,8 km/h (3 Bft) N-NO 22 0,3 C -0,9 C
27.12.2012 22:46 3,3 C 79 % 1009,9 hPa 0,0 l/m 10,8 km/h (2 Bft) N 360 0,0 C 0,4 C
27.12.2012 22:51 3,2 C 79 % 1010,0 hPa 0,0 l/m 14,0 km/h (3 Bft) N-NO 22 -0,1 C -0,3 C
27.12.2012 22:56 3,0 C 79 % 1010,3 hPa 0,0 l/m 9,7 km/h (2 Bft) N-NO 22 -0,3 C 0,3 C
27.12.2012 23:01 2,9 C 80 % 1010,5 hPa 0,0 l/m 14,4 km/h (3 Bft) N-NO 22 -0,2 C -0,7 C
27.12.2012 23:06 2,8 C 80 % 1010,7 hPa 0,0 l/m 5,0 km/h (1 Bft) N 360 -0,3 C 1,6 C
27.12.2012 23:11 2,7 C 80 % 1010,7 hPa 0,0 l/m 6,5 km/h (2 Bft) N-NO 22 -0,4 C 0,9 C
27.12.2012 23:16 2,5 C 80 % 1011,0 hPa 0,0 l/m 7,6 km/h (2 Bft) N 360 -0,6 C 0,3 C
27.12.2012 23:21 2,4 C 80 % 1011,3 hPa 0,0 l/m 7,2 km/h (2 Bft) N-NO 22 -0,7 C 0,3 C
27.12.2012 23:26 2,3 C 80 % 1011,3 hPa 0,0 l/m 13,0 km/h (3 Bft) N 360 -0,8 C -1,2 C
27.12.2012 23:31 2,3 C 80 % 1011,6 hPa 0,0 l/m 8,3 km/h (2 Bft) N-NO 22 -0,8 C -0,1 C
27.12.2012 23:36 2,1 C 81 % 1011,7 hPa 0,0 l/m 12,6 km/h (3 Bft) N 360 -0,8 C -1,4 C
27.12.2012 23:41 2,1 C 81 % 1011,8 hPa 0,0 l/m 9,7 km/h (2 Bft) N 360 -0,8 C -0,7 C
27.12.2012 23:46 1,9 C 80 % 1012,0 hPa 0,0 l/m 8,6 km/h (2 Bft) NO 45 -1,2 C -0,7 C
27.12.2012 23:51 1,8 C 80 % 1012,4 hPa 0,0 l/m 15,1 km/h (3 Bft) N 360 -1,3 C -2,2 C
27.12.2012 23:56 1,6 C 78 % 1012,6 hPa 0,0 l/m 16,9 km/h (3 Bft) N-NO 22 -1,8 C -2,8 C
_ Min-Zeit 23:56 14:26 05:56 - 20:26 - - 23:56 23:56
Minimum _ 1,6 C 73 % 998,9 hPa - 1,4 km/h (1 Bft) - - -1,8 C -2,8 C
_ Max-Zeit 12:51 04:21 23:56 08:21 13:01 - - 06:46 15:01
Maximum _ 8,3 C 91 % 1012,6 hPa 1,0 l/m 40,0 km/h
W (6 Bft)
- - 5,7 C 6,1 C
Durchschnitt _ 6,0 C 85 % 1002,6 hPa #5,2 l/m 14,0 km/h (3 Bft) W-SW - 3,6 C 3,4 C
(c) by David Heller